Airfield :
LOGIN :

Register | Disclaimer

   EN    FR    IT 

 










Legend :    VFR   Marginal VFR   IFR   Intensive IFR   Very Intensive IFR
Visi :
Ceiling :
>= 8 km
>= 3000ft
5 to 8 km
1000 to 3000 ft
1500m to 5 km
500 to 1000 ft
800 to 1500m
200 to 500 ft
< 800m
< 200 ft
Symbols :   Thunderstorms  Fog  Heavy snow  Heavy precipitations  Wind > 20 kt
SIGMETs :     Misc.  Thunderstorms  Icing  Turbulence  Mountain Waves  Volcanic Ashes







- Airport Elevation : 33 ft
- IATA code : MHZ


EGUN - RAF Mildenhall

CURRENT METAR :
  • 142156Z AUTO 23009KT 9999 FEW021 SCT027 03/03 A2914 RMK AO2 SLP871 T00260026 $

EXPIRED METARs :
  • 142151Z AUTO 23010KT 9999 SCT027 03/03 A2914 RMK AO2 SLP871 $
  • 142101Z AUTO 22011KT 9999 BKN040 03/03 A2913 RMK AO2 SLP868 $
  • 142056Z AUTO 23010KT 9999 FEW033 SCT040 03/03 A2913 RMK AO2 SLP868 T00260026 50002 .
  • 142041Z AUTO 23012KT 9999 SCT033 03/03 A2913 RMK AO2 SLP868 $
  • 141956Z AUTO 21010KT 9999 OVC036 03/03 A2912 RMK AO2 SLP865 T00300030 .

TAF TAF EGUN
Valid from the 14 at 20:00 until the 16 at 02:00 UTC


142007Z 1420/1602 22007KT 9999 SCT015 QNH2909INS
BECMG 1423/1424 24009KT 8000 -DZ SCT008 BKN020 620204 QNH2913INS
BECMG 1503/1504 27009KT 6000 -SHRA SCT008 BKN020 620808 QNH2918INS
BECMG 1506/1507 32009KT 9999 NSW SCT008 QNH2927INS
BECMG 1511/1512 31012G20KT 9999 SCT010 QNH2935INS
BECMG 1515/1516 33009KT 9999 SCT016 QNH2942INS
BECMG 1522/1523 32012KT 9999 FEW030 QNH2948INS TX04/1515Z TN00/1421Z
No reported NOTAMs for that airfield.
1 SIGMET reported for the London FIR (EGTT) :
 
Severe turbulence
EGTT SIGMET 05 VALID 141900/142300 EGRR
EGTT LONDON FIR SEV TURB FCST SW OF LINE N5000 W00149 - N5152 W00623 SFC/FL060 STNR WKN=



MET'MAP, your aeronautical weather chart ! - Copyright ORBIFLY December 2007 - Disclaimer

ORBIFLY MET'MAP TEAM :

Programming & Development : Alexandra Zaïnal
Concept & Development : Baudouin d'Aumeries
Co-Development & Prog : Marc-Olivier Méhu
Technical & hardware support : Manuel Goepfert

Contact : metmap@orbifly.com




SOURCES & CREDITS :

   NOAA